createdAt,value
2017-12-05T00:01:00.183Z,85.30
2017-12-05T00:03:27.731Z,85.10
2017-12-05T00:05:55.259Z,85.00
2017-12-05T00:08:22.827Z,85.40
2017-12-05T00:10:51.319Z,86.70
2017-12-05T00:13:18.863Z,86.10
2017-12-05T00:15:46.419Z,85.70
2017-12-05T00:18:13.947Z,85.60
2017-12-05T00:20:42.267Z,85.80
2017-12-05T00:23:09.802Z,85.40
2017-12-05T00:25:37.371Z,85.10
2017-12-05T00:28:04.900Z,84.90
2017-12-05T00:30:33.243Z,85.40
2017-12-05T00:33:00.771Z,84.90
2017-12-05T00:35:29.289Z,84.70
2017-12-05T00:37:56.843Z,84.90
2017-12-05T00:40:24.403Z,84.90
2017-12-05T00:42:51.942Z,84.70
2017-12-05T00:45:19.508Z,84.80
2017-12-05T00:47:47.054Z,84.80
2017-12-05T00:50:14.592Z,84.70
2017-12-05T00:52:44.112Z,84.30
2017-12-05T00:55:11.652Z,84.30
2017-12-05T00:57:39.204Z,84.10
2017-12-05T01:00:07.503Z,84.50
2017-12-05T01:02:36.805Z,84.50
2017-12-05T01:05:04.372Z,84.70
2017-12-05T01:07:31.950Z,84.80
2017-12-05T01:09:59.477Z,85.20
2017-12-05T01:12:27.051Z,84.90
2017-12-05T01:14:54.592Z,85.20
2017-12-05T01:17:22.155Z,84.90
2017-12-05T01:19:49.687Z,85.10
2017-12-05T01:22:17.291Z,85.00
2017-12-05T01:24:44.827Z,85.60
2017-12-05T01:27:12.366Z,85.10
2017-12-05T01:29:39.993Z,85.40
2017-12-05T01:32:07.525Z,84.90
2017-12-05T01:34:35.088Z,84.90
2017-12-05T01:37:02.619Z,85.40
2017-12-05T01:39:30.168Z,85.40
2017-12-05T01:41:57.700Z,86.80
2017-12-05T01:44:25.255Z,85.80
2017-12-05T01:46:52.883Z,86.20
2017-12-05T01:49:20.445Z,86.30
2017-12-05T01:51:47.998Z,85.80
2017-12-05T01:54:15.540Z,85.30
2017-12-05T01:56:44.023Z,84.90
2017-12-05T01:59:11.575Z,84.90
2017-12-05T02:01:39.128Z,85.30
2017-12-05T02:04:06.699Z,84.70
2017-12-05T02:06:34.279Z,84.90
2017-12-05T02:09:01.812Z,84.80
2017-12-05T02:11:29.375Z,84.90
2017-12-05T02:13:57.885Z,84.80
2017-12-05T02:16:25.449Z,84.60
2017-12-05T02:18:52.991Z,85.30
2017-12-05T02:21:21.534Z,85.60
2017-12-05T02:23:49.072Z,85.20
2017-12-05T02:26:17.374Z,85.30
2017-12-05T02:28:44.928Z,85.20
2017-12-05T02:31:13.436Z,85.30
2017-12-05T02:33:40.991Z,85.10
2017-12-05T02:36:08.531Z,85.10
2017-12-05T02:38:36.080Z,85.40
2017-12-05T02:41:10.384Z,85.20
2017-12-05T02:43:40.673Z,85.10
2017-12-05T02:46:08.228Z,85.10
2017-12-05T02:48:35.779Z,85.10
2017-12-05T02:51:03.311Z,85.10
2017-12-05T02:53:30.863Z,85.00
2017-12-05T02:55:58.396Z,84.70
2017-12-05T02:58:26.695Z,84.80
2017-12-05T03:00:54.263Z,84.80
2017-12-05T03:03:22.760Z,85.00
2017-12-05T03:05:51.332Z,84.70
2017-12-05T03:08:19.813Z,84.60
2017-12-05T03:10:48.348Z,85.10
2017-12-05T03:13:15.881Z,85.20
2017-12-05T03:15:43.464Z,84.70
2017-12-05T03:18:10.993Z,85.40
2017-12-05T03:20:38.523Z,85.80
2017-12-05T03:23:06.077Z,85.40
2017-12-05T03:25:33.628Z,85.60
2017-12-05T03:28:01.194Z,85.90
2017-12-05T03:30:29.703Z,85.00
2017-12-05T03:32:57.259Z,86.00
2017-12-05T03:35:24.791Z,85.50
2017-12-05T03:37:52.339Z,85.20
2017-12-05T03:40:19.875Z,85.00
2017-12-05T03:42:48.371Z,85.40
2017-12-05T03:45:16.695Z,85.60
2017-12-05T03:47:44.218Z,85.60
2017-12-05T03:50:11.763Z,85.60
2017-12-05T03:52:41.015Z,85.00
2017-12-05T03:55:08.588Z,85.00
2017-12-05T03:57:36.141Z,85.40
2017-12-05T04:00:03.720Z,85.40
2017-12-05T04:02:32.242Z,86.10
2017-12-05T04:04:59.799Z,85.80
2017-12-05T04:07:27.381Z,85.40
2017-12-05T04:09:56.884Z,85.30
2017-12-05T04:12:24.435Z,84.60
2017-12-05T04:14:51.959Z,85.00
2017-12-05T04:17:21.284Z,85.00
2017-12-05T04:19:49.407Z,85.00
2017-12-05T04:22:16.960Z,85.00
2017-12-05T04:24:44.918Z,85.20
2017-12-05T04:27:13.412Z,85.20
2017-12-05T04:29:40.942Z,85.20
2017-12-05T04:32:08.492Z,84.90
2017-12-05T04:34:36.030Z,84.70
2017-12-05T04:37:03.555Z,85.00
2017-12-05T04:39:32.080Z,85.20
2017-12-05T04:41:59.617Z,85.20
2017-12-05T04:44:27.936Z,84.90
2017-12-05T04:46:55.476Z,84.90
2017-12-05T04:49:23.040Z,84.60
2017-12-05T04:51:50.574Z,84.50
2017-12-05T04:54:18.135Z,84.60
2017-12-05T04:56:45.654Z,84.70
2017-12-05T04:59:13.230Z,85.00
2017-12-05T05:01:41.534Z,84.90
2017-12-05T05:04:11.085Z,84.90
2017-12-05T05:06:38.627Z,85.00
2017-12-05T05:09:06.159Z,85.50
2017-12-05T05:11:34.711Z,85.50
2017-12-05T05:14:03.018Z,86.50
2017-12-05T05:16:30.579Z,86.50
2017-12-05T05:24:26.839Z,85.90
2017-12-05T05:26:54.887Z,86.60
2017-12-05T05:29:23.174Z,85.90
2017-12-05T05:31:50.731Z,85.90
2017-12-05T05:34:18.268Z,86.20
2017-12-05T05:36:45.823Z,86.00
2017-12-05T05:39:13.350Z,85.70
2017-12-05T05:41:40.955Z,85.80
2017-12-05T05:44:09.260Z,85.80
2017-12-05T05:46:36.791Z,85.70
2017-12-05T05:49:05.112Z,85.50
2017-12-05T05:51:32.662Z,85.50
2017-12-05T05:54:02.195Z,86.00
2017-12-05T05:56:29.777Z,85.80
2017-12-05T05:58:58.101Z,85.70
2017-12-05T06:01:25.624Z,85.60
2017-12-05T06:03:53.943Z,85.90
2017-12-05T06:06:21.464Z,85.90
2017-12-05T06:08:49.795Z,85.40
2017-12-05T06:11:17.346Z,85.40
2017-12-05T06:13:44.910Z,85.40
2017-12-05T06:16:12.446Z,85.40
2017-12-05T06:18:40.024Z,86.10
2017-12-05T06:21:08.163Z,85.90
2017-12-05T06:23:35.699Z,85.70
2017-12-05T06:26:04.019Z,85.20
2017-12-05T06:28:31.555Z,85.20
2017-12-05T06:30:59.113Z,85.30
2017-12-05T06:33:26.654Z,85.00
2017-12-05T06:35:55.029Z,85.10
2017-12-05T06:38:22.591Z,85.10
2017-12-05T06:40:50.987Z,84.60
2017-12-05T06:43:18.527Z,84.60
2017-12-05T06:45:46.850Z,84.50
2017-12-05T06:48:14.412Z,84.50
2017-12-05T06:50:42.038Z,84.70
2017-12-05T06:53:09.588Z,84.70
2017-12-05T06:55:37.959Z,85.30
2017-12-05T06:58:06.321Z,85.60
2017-12-05T07:03:27.835Z,85.10
2017-12-05T07:05:55.400Z,85.40
2017-12-05T07:08:22.989Z,85.50
2017-12-05T07:10:51.302Z,86.40
2017-12-05T07:13:19.184Z,86.40
2017-12-05T07:15:46.739Z,86.40
2017-12-05T07:18:16.314Z,86.10
2017-12-05T07:20:43.875Z,85.60
2017-12-05T07:23:11.434Z,85.60
2017-12-05T07:25:39.011Z,86.00
2017-12-05T07:28:07.144Z,85.80
2017-12-05T07:30:36.195Z,87.40
2017-12-05T07:33:04.702Z,87.40
2017-12-05T07:35:32.644Z,86.80
2017-12-05T07:38:00.193Z,86.50
2017-12-05T07:40:27.784Z,86.30
2017-12-05T07:42:55.335Z,85.40
2017-12-05T07:45:22.921Z,85.30
2017-12-05T07:47:51.241Z,85.20
2017-12-05T07:50:18.783Z,84.70
2017-12-05T07:52:46.349Z,85.20
2017-12-05T07:55:13.907Z,85.90
2017-12-05T07:57:41.475Z,85.10
2017-12-05T08:00:09.665Z,84.50
2017-12-05T08:02:39.199Z,84.20
2017-12-05T08:05:06.739Z,84.10
2017-12-05T08:07:35.318Z,83.80
2017-12-05T08:10:02.860Z,83.70
2017-12-05T08:12:31.391Z,83.60
2017-12-05T08:14:58.958Z,83.60
2017-12-05T08:17:27.304Z,83.90
2017-12-05T08:19:54.864Z,83.90
2017-12-05T08:22:22.492Z,83.50
2017-12-05T08:24:50.068Z,83.80
2017-12-05T08:27:17.635Z,83.50
2017-12-05T08:29:45.213Z,84.20
2017-12-05T08:32:13.559Z,83.80
2017-12-05T08:34:41.139Z,83.80
2017-12-05T08:37:10.572Z,83.30
2017-12-05T08:39:38.907Z,82.80
2017-12-05T08:42:06.525Z,82.80
2017-12-05T08:44:34.113Z,82.70
2017-12-05T08:47:02.248Z,82.80
2017-12-05T08:49:31.502Z,82.10
2017-12-05T08:51:59.036Z,81.90
2017-12-05T08:54:26.598Z,82.20
2017-12-05T08:56:54.179Z,82.00
2017-12-05T08:59:21.758Z,81.80
2017-12-05T09:01:49.357Z,81.80
2017-12-05T09:04:16.896Z,81.90
2017-12-05T09:06:45.235Z,81.60
2017-12-05T09:09:12.781Z,81.60
2017-12-05T09:11:40.375Z,81.80
2017-12-05T09:14:07.919Z,80.60
2017-12-05T09:16:35.511Z,81.80
2017-12-05T09:19:03.822Z,82.20
2017-12-05T09:21:32.067Z,82.10
2017-12-05T09:24:00.588Z,81.40
2017-12-05T09:26:28.165Z,80.80
2017-12-05T09:28:55.734Z,80.50
2017-12-05T09:31:23.293Z,80.40
2017-12-05T09:33:50.895Z,80.50
2017-12-05T09:36:18.434Z,81.00
2017-12-05T09:38:46.763Z,82.30
2017-12-05T09:41:14.307Z,82.30
2017-12-05T09:43:41.887Z,81.30
2017-12-05T09:46:09.419Z,79.80
2017-12-05T09:48:37.879Z,79.40
2017-12-05T09:51:05.416Z,78.70
2017-12-05T09:53:33.842Z,79.60
2017-12-05T09:56:01.395Z,79.60
2017-12-05T09:58:29.871Z,79.20
2017-12-05T10:00:57.443Z,80.40
2017-12-05T10:03:24.983Z,79.50
2017-12-05T10:05:52.548Z,78.30
2017-12-05T10:08:20.096Z,77.90
2017-12-05T10:10:48.535Z,76.60
2017-12-05T10:13:16.094Z,76.20
2017-12-05T10:15:43.667Z,76.60
2017-12-05T10:18:11.217Z,75.90
2017-12-05T10:20:40.708Z,77.10
2017-12-05T10:23:08.249Z,76.70
2017-12-05T10:25:35.831Z,76.20
2017-12-05T10:28:04.367Z,76.60
2017-12-05T10:30:32.867Z,76.80
2017-12-05T10:33:00.444Z,76.90
2017-12-05T10:35:28.826Z,76.80
2017-12-05T10:37:56.399Z,76.80
2017-12-05T10:40:23.949Z,76.60
2017-12-05T10:42:51.527Z,77.40
2017-12-05T10:45:19.857Z,76.70
2017-12-05T10:47:47.419Z,76.70
2017-12-05T10:50:14.964Z,76.20
2017-12-05T10:52:43.298Z,76.30
2017-12-05T10:55:11.605Z,76.30
2017-12-05T10:57:39.176Z,76.30
2017-12-05T11:00:06.706Z,75.90
2017-12-05T11:02:35.011Z,75.60
2017-12-05T11:05:02.592Z,75.60
2017-12-05T11:07:30.128Z,76.30
2017-12-05T11:09:57.700Z,75.70
2017-12-05T11:12:25.258Z,75.40
2017-12-05T11:14:53.787Z,74.60
2017-12-05T11:17:22.102Z,76.50
2017-12-05T11:19:50.582Z,76.50
2017-12-05T11:22:18.133Z,75.50
2017-12-05T11:24:45.691Z,75.40
2017-12-05T11:27:13.235Z,75.10
2017-12-05T11:29:40.843Z,75.10
2017-12-05T11:32:08.384Z,76.00
2017-12-05T11:34:36.702Z,73.40
2017-12-05T11:37:05.047Z,73.70
2017-12-05T11:39:33.563Z,73.70
2017-12-05T11:42:01.178Z,72.70
2017-12-05T11:44:29.053Z,71.70
2017-12-05T11:46:56.620Z,70.10
2017-12-05T11:49:24.168Z,69.50
2017-12-05T11:51:52.746Z,70.50
2017-12-05T11:54:21.607Z,71.40
2017-12-05T11:56:49.180Z,71.20
2017-12-05T11:59:16.721Z,73.40
2017-12-05T12:01:44.347Z,73.70
2017-12-05T12:04:11.859Z,73.70
2017-12-05T12:06:39.412Z,71.80
2017-12-05T12:09:06.973Z,72.40
2017-12-05T12:11:34.514Z,72.70
2017-12-05T12:14:02.100Z,71.30
2017-12-05T12:16:29.650Z,71.50
2017-12-05T12:18:57.211Z,71.30
2017-12-05T12:21:24.743Z,70.60
2017-12-05T12:23:53.079Z,68.80
2017-12-05T12:26:20.616Z,68.70
2017-12-05T12:28:48.169Z,65.10
2017-12-05T12:31:15.720Z,67.70
2017-12-05T12:33:44.112Z,66.90
2017-12-05T12:36:13.635Z,68.20
2017-12-05T12:38:41.174Z,66.80
2017-12-05T12:41:08.744Z,67.30
2017-12-05T12:43:36.295Z,66.80
2017-12-05T12:46:03.855Z,66.70
2017-12-05T12:48:32.363Z,67.00
2017-12-05T12:51:00.006Z,67.20
2017-12-05T12:53:27.560Z,66.40
2017-12-05T12:55:55.123Z,68.70
2017-12-05T12:58:22.693Z,70.40
2017-12-05T13:00:50.235Z,71.00
2017-12-05T13:03:17.797Z,70.50
2017-12-05T13:05:45.393Z,72.40
2017-12-05T13:08:13.726Z,72.90
2017-12-05T13:10:41.302Z,73.00
2017-12-05T13:13:08.883Z,74.00
2017-12-05T13:15:36.440Z,73.60
2017-12-05T13:18:04.056Z,73.10
2017-12-05T13:20:33.276Z,72.30
2017-12-05T13:23:01.863Z,72.30
2017-12-05T13:25:29.427Z,72.00
2017-12-05T13:27:56.974Z,71.90
2017-12-05T13:30:26.508Z,71.90
2017-12-05T13:32:55.032Z,72.10
2017-12-05T13:35:22.627Z,72.10
2017-12-05T13:37:50.158Z,72.10
2017-12-05T13:40:17.800Z,72.50
2017-12-05T13:42:45.340Z,72.80
2017-12-05T13:45:13.745Z,73.60
2017-12-05T13:47:42.783Z,72.60
2017-12-05T13:50:10.339Z,72.50
2017-12-05T13:52:37.938Z,72.80
2017-12-05T13:55:06.243Z,74.80
2017-12-05T13:57:33.820Z,74.80
2017-12-05T14:00:01.352Z,74.30
2017-12-05T14:02:28.973Z,74.70
2017-12-05T14:04:57.281Z,74.60
2017-12-05T14:07:25.522Z,74.50
2017-12-05T14:09:53.079Z,74.70
2017-12-05T14:12:20.625Z,75.40
2017-12-05T14:14:48.199Z,75.20
2017-12-05T14:17:15.743Z,76.30
2017-12-05T14:19:43.342Z,77.20
2017-12-05T14:22:10.897Z,77.60
2017-12-05T14:24:40.424Z,78.70
2017-12-05T14:27:07.992Z,78.70
2017-12-05T14:29:35.563Z,78.60
2017-12-05T14:32:03.115Z,79.40
2017-12-05T14:34:30.699Z,79.00
2017-12-05T14:36:58.279Z,79.00
2017-12-05T14:39:26.590Z,79.00
2017-12-05T14:41:54.931Z,79.20
2017-12-05T14:44:24.195Z,79.20
2017-12-05T14:46:51.767Z,79.20
2017-12-05T14:49:20.283Z,80.00
2017-12-05T14:51:48.619Z,81.30
2017-12-05T14:54:17.149Z,81.30
2017-12-05T14:56:45.603Z,80.70
2017-12-05T14:59:13.999Z,80.80
2017-12-05T15:01:42.314Z,80.70
2017-12-05T15:04:09.876Z,80.70
2017-12-05T15:06:37.421Z,80.40
2017-12-05T15:09:04.995Z,80.40
2017-12-05T15:11:33.481Z,80.80
2017-12-05T15:14:01.041Z,81.10
2017-12-05T15:16:29.559Z,81.30
2017-12-05T15:18:57.940Z,82.40
2017-12-05T15:21:26.287Z,82.60
2017-12-05T15:23:54.795Z,83.00
2017-12-05T15:26:23.116Z,85.60
2017-12-05T15:28:51.629Z,85.40
2017-12-05T15:31:19.193Z,84.60
2017-12-05T15:33:46.744Z,84.00
2017-12-05T15:36:15.302Z,83.40
2017-12-05T15:38:42.857Z,82.90
2017-12-05T15:41:10.457Z,82.60
2017-12-05T15:43:38.003Z,83.00
2017-12-05T15:46:05.548Z,83.00
2017-12-05T15:48:33.148Z,82.60
2017-12-05T15:51:02.039Z,83.30
2017-12-05T15:53:30.372Z,82.60
2017-12-05T15:55:57.913Z,82.50
2017-12-05T15:58:25.725Z,82.80
2017-12-05T16:00:53.314Z,82.90
2017-12-05T16:03:22.313Z,82.90
2017-12-05T16:05:49.860Z,82.90
2017-12-05T16:08:18.242Z,82.80
2017-12-05T16:10:46.563Z,83.30
2017-12-05T16:13:14.123Z,83.30
2017-12-05T16:15:41.678Z,83.30
2017-12-05T16:18:09.228Z,83.00
2017-12-05T16:20:36.808Z,82.80
2017-12-05T16:23:04.360Z,82.80
2017-12-05T16:25:32.704Z,82.20
2017-12-05T16:28:01.257Z,82.20
2017-12-05T16:30:28.828Z,82.60
2017-12-05T16:32:57.186Z,82.40
2017-12-05T16:35:24.767Z,82.40
2017-12-05T16:37:53.092Z,82.10
2017-12-05T16:40:20.759Z,82.10
2017-12-05T16:42:48.295Z,82.50
2017-12-05T16:45:15.844Z,82.40
2017-12-05T16:47:43.425Z,82.30
2017-12-05T16:50:10.986Z,82.10
2017-12-05T16:52:38.552Z,82.10
2017-12-05T16:55:06.138Z,82.40
2017-12-05T16:57:33.731Z,82.50
2017-12-05T17:00:01.276Z,82.30
2017-12-05T17:02:29.642Z,83.30
2017-12-05T17:04:58.944Z,83.40
2017-12-05T17:07:27.367Z,83.60
2017-12-05T17:09:54.907Z,84.30
2017-12-05T17:12:22.437Z,83.30
2017-12-05T17:14:51.616Z,83.20
2017-12-05T17:17:19.156Z,82.50
2017-12-05T17:19:47.695Z,82.80
2017-12-05T17:22:15.234Z,82.70
2017-12-05T17:24:43.568Z,83.50
2017-12-05T17:27:11.130Z,83.40
2017-12-05T17:29:38.711Z,83.30
2017-12-05T17:32:06.258Z,82.90
2017-12-05T17:34:33.831Z,83.10
2017-12-05T17:37:01.392Z,82.80
2017-12-05T17:39:29.048Z,82.80
2017-12-05T17:41:56.633Z,82.70
2017-12-05T17:44:24.956Z,83.00
2017-12-05T17:46:52.531Z,83.00
2017-12-05T17:49:20.913Z,83.20
2017-12-05T17:51:49.227Z,83.20
2017-12-05T17:54:17.548Z,84.50
2017-12-05T17:56:46.107Z,84.50
2017-12-05T17:59:13.660Z,83.90
2017-12-05T18:01:41.248Z,83.40
2017-12-05T18:04:09.782Z,83.30
2017-12-05T18:06:38.096Z,83.00
2017-12-05T18:09:05.664Z,83.00
2017-12-05T18:11:33.227Z,82.70
2017-12-05T18:14:00.795Z,82.50
2017-12-05T18:16:28.354Z,82.30
2017-12-05T18:18:55.936Z,81.80
2017-12-05T18:21:24.507Z,82.10
2017-12-05T18:23:52.102Z,82.10
2017-12-05T18:26:20.672Z,82.00
2017-12-05T18:28:49.008Z,82.70
2017-12-05T18:31:16.594Z,82.60
2017-12-05T18:33:44.205Z,82.60
2017-12-05T18:36:11.896Z,82.40
2017-12-05T18:38:39.595Z,82.40
2017-12-05T18:41:08.916Z,82.50
2017-12-05T18:43:36.472Z,82.40
2017-12-05T18:46:04.110Z,82.50
2017-12-05T18:48:32.583Z,82.90
2017-12-05T18:51:00.230Z,82.90
2017-12-05T18:53:27.770Z,83.20
2017-12-05T18:55:55.578Z,83.50
2017-12-05T18:58:23.971Z,82.70
2017-12-05T19:00:52.287Z,81.90
2017-12-05T19:03:19.932Z,81.90
2017-12-05T19:05:47.611Z,80.90
2017-12-05T19:08:15.215Z,80.40
2017-12-05T19:10:43.530Z,79.40
2017-12-05T19:13:11.111Z,79.30
2017-12-05T19:15:38.680Z,79.80
2017-12-05T19:18:06.261Z,78.90
2017-12-05T19:20:35.528Z,79.90
2017-12-05T19:23:03.127Z,79.30
2017-12-05T19:25:32.415Z,79.50
2017-12-05T19:28:00.016Z,79.40
2017-12-05T19:30:27.626Z,78.70
2017-12-05T19:32:55.972Z,78.40
2017-12-05T19:35:24.512Z,78.40
2017-12-05T19:37:52.826Z,79.00
2017-12-05T19:40:21.370Z,79.00
2017-12-05T19:42:49.682Z,81.00
2017-12-05T19:45:17.257Z,81.00
2017-12-05T19:47:44.803Z,82.10
2017-12-05T19:50:12.377Z,81.90
2017-12-05T19:52:39.953Z,81.80
2017-12-05T19:55:07.536Z,80.70
2017-12-05T19:57:35.855Z,79.40
2017-12-05T20:00:03.398Z,79.30
2017-12-05T20:02:31.008Z,79.40
2017-12-05T20:04:58.609Z,78.90
2017-12-05T20:07:26.179Z,78.80
2017-12-05T20:09:53.730Z,78.60
2017-12-05T20:12:23.288Z,78.90
2017-12-05T20:14:50.839Z,78.80
2017-12-05T20:17:19.387Z,78.70
2017-12-05T20:19:46.943Z,78.60
2017-12-05T20:22:14.529Z,78.50
2017-12-05T20:24:42.091Z,77.70
2017-12-05T20:27:09.628Z,77.20
2017-12-05T20:29:37.197Z,77.10
2017-12-05T20:32:04.736Z,77.80
2017-12-05T20:34:32.322Z,77.70
2017-12-05T20:36:59.887Z,77.70
2017-12-05T20:39:29.391Z,77.50
2017-12-05T20:41:56.956Z,78.00
2017-12-05T20:44:26.516Z,77.90
2017-12-05T20:46:55.039Z,78.30
2017-12-05T20:49:22.614Z,77.30
2017-12-05T20:51:51.183Z,77.20
2017-12-05T20:54:18.785Z,77.70
2017-12-05T20:56:49.208Z,77.70
2017-12-05T20:59:17.524Z,77.80
2017-12-05T21:01:45.092Z,77.70
2017-12-05T21:04:13.586Z,77.70
2017-12-05T21:06:41.169Z,78.10
2017-12-05T21:09:08.739Z,77.80
2017-12-05T21:11:38.075Z,78.10
2017-12-05T21:14:05.604Z,78.10
2017-12-05T21:16:33.976Z,77.80
2017-12-05T21:19:02.282Z,77.60
2017-12-05T21:21:29.812Z,77.50
2017-12-05T21:23:58.227Z,77.60
2017-12-05T21:26:25.858Z,77.60
2017-12-05T21:28:54.216Z,77.50
2017-12-05T21:31:22.512Z,78.00
2017-12-05T21:33:50.846Z,78.20
2017-12-05T21:36:18.374Z,78.20
2017-12-05T21:38:45.926Z,78.50
2017-12-05T21:41:13.450Z,78.10
2017-12-05T21:43:41.743Z,77.60
2017-12-05T21:46:09.305Z,77.60
2017-12-05T21:48:36.839Z,77.30
2017-12-05T21:51:05.387Z,77.60
2017-12-05T21:53:32.917Z,76.40
2017-12-05T21:56:00.472Z,78.20
2017-12-05T21:58:28.004Z,78.60
2017-12-05T22:00:56.384Z,79.30
2017-12-05T22:03:24.679Z,79.80
2017-12-05T22:05:52.296Z,79.80
2017-12-05T22:08:19.836Z,81.40
2017-12-05T22:10:47.403Z,82.30
2017-12-05T22:13:14.931Z,82.30
2017-12-05T22:15:42.460Z,81.70
2017-12-05T22:18:10.795Z,77.40
2017-12-05T22:20:38.328Z,77.30
2017-12-05T22:23:05.875Z,77.60
2017-12-05T22:25:34.290Z,78.00
2017-12-05T22:28:01.839Z,78.00
2017-12-05T22:30:29.377Z,78.20
2017-12-05T22:32:56.948Z,78.60
2017-12-05T22:35:24.474Z,78.10
2017-12-05T22:37:52.029Z,78.50
2017-12-05T22:40:19.551Z,78.50
2017-12-05T22:42:47.117Z,79.50
2017-12-05T22:45:14.633Z,77.10
2017-12-05T22:47:42.173Z,75.50
2017-12-05T22:50:09.731Z,75.00
2017-12-05T22:52:37.254Z,75.40
2017-12-05T22:55:05.590Z,76.00
2017-12-05T22:57:33.136Z,76.00
2017-12-05T23:00:00.679Z,76.50
2017-12-05T23:02:28.203Z,77.00
2017-12-05T23:04:56.827Z,78.80
2017-12-05T23:07:24.354Z,78.80
2017-12-05T23:09:52.640Z,79.30
2017-12-05T23:12:20.963Z,78.50
2017-12-05T23:14:48.503Z,78.70
2017-12-05T23:17:16.067Z,78.50
2017-12-05T23:19:43.598Z,78.30
2017-12-05T23:22:11.190Z,77.50
2017-12-05T23:24:38.735Z,76.90
2017-12-05T23:27:06.340Z,76.50
2017-12-05T23:29:33.864Z,75.10
2017-12-05T23:32:01.396Z,76.20
2017-12-05T23:34:28.943Z,75.80
2017-12-05T23:36:57.253Z,76.10
2017-12-05T23:39:24.819Z,76.10
2017-12-05T23:41:52.359Z,76.30
2017-12-05T23:44:21.927Z,76.00
2017-12-05T23:46:49.449Z,75.70
2017-12-05T23:49:16.998Z,76.50
2017-12-05T23:51:45.491Z,75.90
2017-12-05T23:54:13.007Z,76.80
2017-12-05T23:56:40.578Z,76.40
2017-12-05T23:59:08.102Z,76.30
